Time;durP1;ratioP1;P1;durP2;ratioP2;P2;SDS_P1;SDS_P2;PMS_P1;PMS_P2;Temp;Humidity;BMP_temperature;BMP_pressure;BME280_temperature;BME280_humidity;BME280_pressure;Samples;Min_cycle;Max_cycle;Signal;HPM_P1;HPM_P2
2021/01/25 00:01:46;;;;;;;0.60;0.60;;;;;;;-3.59;100.00;98617.63;5012007;28;20057;-75
2021/01/25 00:04:50;;;;;;;0.75;0.75;;;;;;;-3.65;100.00;98613.84;5012260;28;20065;-76
2021/01/25 00:07:53;;;;;;;0.50;0.50;;;;;;;-3.70;100.00;98622.44;5012148;28;20060;-76
2021/01/25 00:10:56;;;;;;;0.45;0.45;;;;;;;-3.74;100.00;98626.41;5012264;28;20056;-76
2021/01/25 00:14:00;;;;;;;0.20;0.20;;;;;;;-3.80;100.00;98617.94;5012054;28;20065;-76
2021/01/25 00:17:03;;;;;;;0.60;0.60;;;;;;;-3.85;100.00;98626.53;5011993;28;20053;-76
2021/01/25 00:20:07;;;;;;;0.50;0.50;;;;;;;-3.90;100.00;98627.03;5011870;28;20049;-76
2021/01/25 00:23:10;;;;;;;0.40;0.40;;;;;;;-3.93;100.00;98635.97;5011742;28;20052;-75
2021/01/25 00:26:14;;;;;;;0.45;0.45;;;;;;;-3.94;100.00;98645.31;5011231;28;20060;-76
2021/01/25 00:29:17;;;;;;;0.50;0.50;;;;;;;-3.94;100.00;98650.75;5011759;28;20049;-75
2021/01/25 00:32:21;;;;;;;0.50;0.50;;;;;;;-3.96;100.00;98642.22;5012006;28;20068;-76
2021/01/25 00:35:24;;;;;;;0.40;0.40;;;;;;;-3.99;100.00;98645.78;5011456;28;20049;-76
2021/01/25 00:38:28;;;;;;;0.60;0.60;;;;;;;-3.99;100.00;98649.28;5011595;28;20060;-75
2021/01/25 00:41:31;;;;;;;0.50;0.50;;;;;;;-4.02;100.00;98654.72;5011665;28;20505;-76
2021/01/25 00:44:35;;;;;;;0.32;0.32;;;;;;;-4.06;100.00;98656.72;5011656;28;20116;-76
2021/01/25 00:47:38;;;;;;;0.50;0.50;;;;;;;-4.08;100.00;98656.38;5011382;28;20060;-76
2021/01/25 00:50:41;;;;;;;0.60;0.60;;;;;;;-4.12;100.00;98661.09;5011759;28;20056;-75
2021/01/25 00:53:45;;;;;;;0.40;0.40;;;;;;;-4.17;100.00;98659.56;5011553;28;20048;-75
2021/01/25 00:56:49;;;;;;;0.40;0.40;;;;;;;-4.22;100.00;98662.72;5011337;28;20053;-76
2021/01/25 00:59:52;;;;;;;0.57;0.57;;;;;;;-4.27;100.00;98657.00;5011296;28;20060;-75
2021/01/25 01:02:56;;;;;;;0.80;0.80;;;;;;;-4.31;100.00;98656.25;5011398;28;20061;-75
2021/01/25 01:05:59;;;;;;;0.50;0.50;;;;;;;-4.35;100.00;98666.41;5011589;28;20060;-75
2021/01/25 01:09:03;;;;;;;0.65;0.65;;;;;;;-4.37;100.00;98666.00;5014880;28;20208;-76
2021/01/25 01:12:07;;;;;;;0.40;0.40;;;;;;;-4.39;100.00;98662.94;5014539;28;20402;-76
2021/01/25 01:15:13;;;;;;;0.50;0.50;;;;;;;-4.41;100.00;98670.72;5015223;28;20639;-76
2021/01/25 01:18:17;;;;;;;0.50;0.50;;;;;;;-4.45;100.00;98670.00;5026865;28;20517;-75
2021/01/25 01:21:20;;;;;;;0.50;0.50;;;;;;;-4.47;100.00;98672.34;5034747;28;20053;-76
2021/01/25 01:24:23;;;;;;;0.45;0.45;;;;;;;-4.43;100.00;98683.94;5035530;28;20086;-75
2021/01/25 01:27:27;;;;;;;0.57;0.57;;;;;;;-4.39;100.00;98690.88;5034915;28;20045;-76
2021/01/25 01:30:30;;;;;;;0.50;0.50;;;;;;;-4.34;100.00;98698.59;5035833;28;20060;-78
2021/01/25 01:33:34;;;;;;;0.52;0.52;;;;;;;-4.29;100.00;98700.09;5034594;28;20056;-76
2021/01/25 01:36:37;;;;;;;0.60;0.60;;;;;;;-4.24;100.00;98700.41;5037322;28;20068;-76
2021/01/25 01:39:40;;;;;;;0.60;0.60;;;;;;;-4.22;100.00;98702.75;5035241;28;20061;-76
2021/01/25 01:42:44;;;;;;;0.40;0.40;;;;;;;-4.28;100.00;98698.91;5037051;28;20072;-77
2021/01/25 01:45:47;;;;;;;0.30;0.30;;;;;;;-4.30;100.00;98701.25;5037582;28;20048;-76
2021/01/25 01:48:52;;;;;;;0.28;0.28;;;;;;;-4.36;100.00;98700.16;5036847;28;20639;-77
2021/01/25 01:51:55;;;;;;;0.38;0.38;;;;;;;-4.39;100.00;98707.19;5037223;28;20065;-76
2021/01/25 01:55:00;;;;;;;0.43;0.43;;;;;;;-4.43;100.00;98705.66;5036457;28;20082;-76
2021/01/25 01:58:03;;;;;;;0.43;0.43;;;;;;;-4.44;100.00;98709.56;5036004;28;20048;-76
2021/01/25 02:01:07;;;;;;;0.60;0.60;;;;;;;-4.48;100.00;98708.84;5035965;28;20144;-76
2021/01/25 02:04:11;;;;;;;0.50;0.50;;;;;;;-4.50;100.00;98714.66;5036341;28;20053;-77
2021/01/25 02:07:15;;;;;;;0.50;0.50;;;;;;;-4.52;100.00;98713.50;5036310;28;20517;-76
2021/01/25 02:10:21;;;;;;;0.68;0.68;;;;;;;-4.55;100.00;98728.69;5035823;28;20052;-76
2021/01/25 02:13:25;;;;;;;0.60;0.60;;;;;;;-4.59;100.00;98725.22;5035165;28;20044;-76
2021/01/25 02:16:29;;;;;;;0.40;0.40;;;;;;;-4.56;100.00;98723.66;5035098;28;20052;-76
2021/01/25 02:19:39;;;;;;;0.50;0.50;;;;;;;-4.50;100.00;98727.50;5034169;28;20060;-76
2021/01/25 02:23:13;;;;;;;0.50;0.50;;;;;;;-4.46;100.00;98728.22;5034187;28;20626;-76
2021/01/25 02:26:27;;;;;;;0.70;0.70;;;;;;;-4.43;100.00;98730.91;5034237;28;20048;-76
2021/01/25 02:29:32;;;;;;;0.60;0.60;;;;;;;-4.32;100.00;98734.28;5034294;28;20061;-76
2021/01/25 02:32:36;;;;;;;0.52;0.52;;;;;;;-4.28;100.00;98739.66;5034304;28;20060;-76
2021/01/25 02:35:41;;;;;;;0.50;0.50;;;;;;;-4.30;100.00;98747.47;5034804;28;20052;-76
2021/01/25 02:38:48;;;;;;;0.40;0.40;;;;;;;-4.34;100.00;98741.28;5034278;28;20076;-76
2021/01/25 02:41:52;;;;;;;0.32;0.32;;;;;;;-4.43;100.00;98743.69;5033828;28;20064;-76
2021/01/25 02:44:58;;;;;;;0.32;0.32;;;;;;;-4.43;100.00;98744.47;5033784;28;20053;-76
2021/01/25 02:48:02;;;;;;;0.40;0.40;;;;;;;-4.44;100.00;98745.63;5033827;28;20394;-76
2021/01/25 02:51:05;;;;;;;0.55;0.55;;;;;;;-4.48;100.00;98746.88;5033945;28;20082;-76
2021/01/25 02:54:09;;;;;;;0.50;0.50;;;;;;;-4.54;100.00;98751.16;5033791;28;20048;-76
2021/01/25 02:57:14;;;;;;;0.60;0.60;;;;;;;-4.62;100.00;98743.09;5033353;28;20045;-76
2021/01/25 03:00:18;;;;;;;0.70;0.70;;;;;;;-4.64;100.00;98745.44;5033734;28;20052;-76
2021/01/25 03:03:23;;;;;;;0.32;0.32;;;;;;;-4.64;100.00;98750.88;5033483;28;20065;-76
2021/01/25 03:06:27;;;;;;;0.40;0.40;;;;;;;-4.66;100.00;98742.34;5033509;28;20044;-76
2021/01/25 03:09:31;;;;;;;0.55;0.55;;;;;;;-4.62;100.00;98750.47;5033329;28;20044;-76
2021/01/25 03:12:35;;;;;;;0.50;0.50;;;;;;;-4.52;100.00;98751.53;5013304;28;20053;-75
2021/01/25 03:15:40;;;;;;;0.60;0.60;;;;;;;-4.39;100.00;98755.31;5013610;28;20049;-76
2021/01/25 03:18:43;;;;;;;0.52;0.52;;;;;;;-4.24;100.00;98767.56;5013307;28;20445;-76
2021/01/25 03:21:52;;;;;;;0.63;0.63;;;;;;;-4.14;100.00;98778.38;5013086;28;20072;-76
2021/01/25 03:24:55;;;;;;;0.52;0.52;;;;;;;-4.04;100.00;98765.84;5014032;28;20057;-76
2021/01/25 03:27:59;;;;;;;0.40;0.40;;;;;;;-3.94;100.00;98789.41;5013191;28;20520;-76
2021/01/25 03:31:02;;;;;;;0.50;0.50;;;;;;;-3.80;100.00;98785.75;5012806;28;20065;-76
2021/01/25 03:34:07;;;;;;;0.28;0.28;;;;;;;-3.70;100.00;98772.03;5013121;28;20517;-76
2021/01/25 03:37:10;;;;;;;0.43;0.43;;;;;;;-3.55;100.00;98769.94;5013060;28;20053;-76
2021/01/25 03:40:14;;;;;;;0.50;0.50;;;;;;;-3.43;100.00;98767.44;5012469;28;20057;-76
2021/01/25 03:43:18;;;;;;;0.20;0.20;;;;;;;-3.38;100.00;98775.13;5012502;28;20057;-76
2021/01/25 03:46:21;;;;;;;0.50;0.50;;;;;;;-3.43;100.00;98772.88;5012932;28;20053;-76
2021/01/25 03:49:24;;;;;;;0.40;0.40;;;;;;;-3.48;100.00;98776.06;5012771;28;20057;-76
2021/01/25 03:52:27;;;;;;;0.43;0.43;;;;;;;-3.60;100.00;98779.31;5012412;28;20053;-76
2021/01/25 03:55:31;;;;;;;0.10;0.10;;;;;;;-3.72;100.00;98771.69;5012251;28;20061;-76
2021/01/25 03:58:34;;;;;;;0.40;0.40;;;;;;;-3.81;100.00;98779.56;5014043;28;20056;-74
2021/01/25 04:01:39;;;;;;;0.30;0.30;;;;;;;-3.90;100.00;98776.56;5013085;28;20053;-76
2021/01/25 04:04:43;;;;;;;0.40;0.40;;;;;;;-3.98;100.00;98786.72;5012298;28;20069;-76
2021/01/25 04:07:47;;;;;;;0.57;0.57;;;;;;;-4.04;100.00;98788.34;5012511;28;20065;-75
2021/01/25 04:10:51;;;;;;;0.40;0.40;;;;;;;-4.12;100.00;98786.88;5021137;28;20053;-75
2021/01/25 04:13:54;;;;;;;0.50;0.50;;;;;;;-4.17;100.00;98797.41;5030739;28;20068;-76
2021/01/25 04:16:57;;;;;;;0.30;0.30;;;;;;;-4.27;100.00;98793.63;5032307;28;20064;-76
2021/01/25 04:20:02;;;;;;;0.20;0.20;;;;;;;-4.34;100.00;98801.84;5032109;28;20429;-76
2021/01/25 04:23:06;;;;;;;0.57;0.57;;;;;;;-4.39;100.00;98793.34;5032141;28;20405;-76
2021/01/25 04:26:10;;;;;;;0.43;0.43;;;;;;;-4.41;100.00;98801.13;5032332;28;20862;-76
2021/01/25 04:29:13;;;;;;;0.60;0.60;;;;;;;-4.46;100.00;98807.00;5032037;28;20052;-76
2021/01/25 04:32:18;;;;;;;0.40;0.40;;;;;;;-4.53;100.00;98804.34;5031798;28;20052;-76
2021/01/25 04:35:22;;;;;;;0.40;0.40;;;;;;;-4.57;100.00;98803.59;5032198;28;20061;-76
2021/01/25 04:38:25;;;;;;;0.22;0.22;;;;;;;-4.59;100.00;98795.81;5031791;28;20390;-76
2021/01/25 04:41:29;;;;;;;0.40;0.40;;;;;;;-4.63;100.00;98805.94;5031784;28;20497;-76
2021/01/25 04:44:32;;;;;;;0.50;0.50;;;;;;;-4.68;100.00;98804.44;5031897;28;20413;-76
2021/01/25 04:47:38;;;;;;;0.70;0.70;;;;;;;-4.72;100.00;98811.09;5031351;28;20054;-76
2021/01/25 04:50:43;;;;;;;0.52;0.52;;;;;;;-4.76;100.00;98802.94;5031838;28;20056;-76
2021/01/25 04:53:46;;;;;;;0.55;0.55;;;;;;;-4.76;100.00;98813.81;5031342;28;20060;-76
2021/01/25 04:56:51;;;;;;;0.40;0.40;;;;;;;-4.72;100.00;98809.13;5031577;28;20072;-76
2021/01/25 04:59:55;;;;;;;0.60;0.60;;;;;;;-4.62;100.00;98821.88;5031708;28;20056;-76
2021/01/25 05:02:59;;;;;;;0.52;0.52;;;;;;;-4.47;100.00;98816.31;5031715;28;20048;-77
2021/01/25 05:06:02;;;;;;;0.50;0.50;;;;;;;-4.27;100.00;98806.44;5031593;28;20056;-76
2021/01/25 05:09:06;;;;;;;0.50;0.50;;;;;;;-4.09;100.00;98805.09;5031050;28;20048;-76
2021/01/25 05:12:09;;;;;;;0.60;0.60;;;;;;;-3.88;100.00;98806.84;5030901;28;20052;-76
2021/01/25 05:15:46;;;;;;;0.40;0.40;;;;;;;-3.69;100.00;98808.19;5030969;28;20048;-76
2021/01/25 05:18:55;;;;;;;0.55;0.55;;;;;;;-3.57;100.00;98811.13;5030862;28;20053;-76
2021/01/25 05:21:59;;;;;;;0.30;0.30;;;;;;;-3.45;100.00;98818.78;5030698;28;20060;-76
2021/01/25 05:25:03;;;;;;;0.10;0.10;;;;;;;-3.39;100.00;98819.09;5030889;28;20053;-76
2021/01/25 05:28:12;;;;;;;0.60;0.60;;;;;;;-3.39;100.00;98808.22;5030888;28;20053;-76
2021/01/25 05:31:23;;;;;;;0.50;0.50;;;;;;;-3.32;100.00;98827.97;5031032;28;20053;-76
2021/01/25 05:34:27;;;;;;;;;;;;;;;-3.26;100.00;98820.88;5031848;28;20048;-76
2021/01/25 05:37:34;;;;;;;0.40;0.40;;;;;;;-3.24;100.00;98823.97;5030938;28;19917;-76
2021/01/25 05:40:39;;;;;;;0.63;0.63;;;;;;;-3.27;100.00;98837.63;5031449;28;20060;-77
2021/01/25 05:43:43;;;;;;;0.50;0.50;;;;;;;-3.28;100.00;98838.78;5030946;28;20053;-76
2021/01/25 05:46:47;;;;;;;0.60;0.60;;;;;;;-3.17;100.00;98836.72;5031128;28;20044;-76
2021/01/25 05:49:51;;;;;;;0.50;0.50;;;;;;;-3.05;100.00;98835.41;5031293;28;20056;-76
2021/01/25 05:52:57;;;;;;;0.13;0.13;;;;;;;-2.88;100.00;98846.03;5030874;28;20445;-76
2021/01/25 05:56:05;;;;;;;0.40;0.40;;;;;;;-2.79;100.00;98832.69;5034896;28;20052;-76
2021/01/25 05:59:09;;;;;;;0.40;0.40;;;;;;;-2.67;100.00;98834.06;5035289;28;20095;-76
2021/01/25 06:02:12;;;;;;;0.50;0.50;;;;;;;-2.54;100.00;98826.88;5034727;28;20056;-76
2021/01/25 06:05:33;;;;;;;0.17;0.17;;;;;;;-2.38;100.00;98844.13;5034362;28;20064;-76
2021/01/25 06:08:50;;;;;;;0.30;0.30;;;;;;;-2.34;100.00;98844.84;5034819;28;20398;-76
2021/01/25 06:12:01;;;;;;;0.35;0.35;;;;;;;-2.29;100.00;98843.59;5034368;28;20065;-76
2021/01/25 06:15:08;;;;;;;0.30;0.30;;;;;;;-2.22;100.00;98838.03;5034867;28;20052;-75
2021/01/25 06:18:15;;;;;;;0.47;0.47;;;;;;;-2.09;100.00;98847.16;5035903;28;20052;-76
2021/01/25 06:21:25;;;;;;;0.43;0.43;;;;;;;-1.96;100.00;98850.06;5035705;28;20040;-76
2021/01/25 06:24:29;;;;;;;0.38;0.38;;;;;;;-1.91;100.00;98844.91;5034279;28;20082;-75
2021/01/25 06:27:33;;;;;;;0.50;0.50;;;;;;;-1.84;100.00;98852.22;5034314;28;20056;-76
2021/01/25 06:30:42;;;;;;;0.15;0.15;;;;;;;-1.81;100.00;98846.69;5034264;28;20052;-73
2021/01/25 06:33:47;;;;;;;0.32;0.32;;;;;;;-1.75;100.00;98852.41;5034857;28;20053;-80
2021/01/25 06:36:51;;;;;;;0.38;0.38;;;;;;;-1.68;100.00;98855.78;5034219;28;20394;-76
2021/01/25 06:39:58;;;;;;;0.30;0.30;;;;;;;-1.62;100.00;98864.25;5034153;28;20056;-76
2021/01/25 06:43:05;;;;;;;0.40;0.40;;;;;;;-1.58;100.00;98857.56;5034391;28;20410;-76
2021/01/25 06:46:09;;;;;;;0.38;0.38;;;;;;;-1.50;100.00;98865.63;5034448;28;20048;-76
2021/01/25 06:49:13;;;;;;;0.30;0.30;;;;;;;-1.46;100.00;98861.63;5034299;28;20048;-76
2021/01/25 06:52:18;;;;;;;0.10;0.10;;;;;;;-1.38;100.00;98873.16;5032987;28;20048;-76
2021/01/25 06:55:22;;;;;;;0.20;0.20;;;;;;;-1.31;100.00;98873.03;5034043;28;20559;-76
2021/01/25 06:58:30;;;;;;;0.50;0.50;;;;;;;-1.24;100.00;98873.69;5033481;28;20064;-76
2021/01/25 07:01:35;;;;;;;0.40;0.40;;;;;;;-1.17;100.00;98870.03;5024267;28;20065;-76
2021/01/25 07:04:50;;;;;;;0.10;0.10;;;;;;;-1.11;100.00;98876.56;5023513;28;20048;-76
2021/01/25 07:08:16;;;;;;;0.30;0.30;;;;;;;-1.07;100.00;98877.25;5021742;28;20057;-77
2021/01/25 07:11:22;;;;;;;0.10;0.10;;;;;;;-1.04;100.00;98882.63;5026352;28;20056;-77
2021/01/25 07:14:27;;;;;;;0.32;0.32;;;;;;;-1.02;100.00;98884.97;5016231;28;20057;-77
2021/01/25 07:17:31;;;;;;;0.10;0.10;;;;;;;-0.96;100.00;98896.94;5013245;28;20057;-76
2021/01/25 07:20:35;;;;;;;0.30;0.30;;;;;;;-0.89;100.00;98902.25;5013090;28;20417;-77
2021/01/25 07:23:41;;;;;;;0.38;0.38;;;;;;;-0.85;100.00;98906.47;5011737;28;20057;-77
2021/01/25 07:26:44;;;;;;;0.30;0.30;;;;;;;-0.80;100.00;98903.22;5014147;28;20064;-77
2021/01/25 07:29:48;;;;;;;0.40;0.40;;;;;;;-0.75;100.00;98910.13;5011566;28;20057;-77
2021/01/25 07:32:52;;;;;;;0.20;0.20;;;;;;;-0.76;100.00;98914.09;5010831;28;20113;-77
2021/01/25 07:35:58;;;;;;;0.35;0.35;;;;;;;-0.76;100.00;98914.09;5010593;28;20406;-77
2021/01/25 07:39:05;;;;;;;0.30;0.30;;;;;;;-0.73;100.00;98918.69;5012148;28;20060;-77
2021/01/25 07:42:08;;;;;;;0.30;0.30;;;;;;;-0.71;100.00;98929.22;5012948;28;20048;-77
2021/01/25 07:45:13;;;;;;;0.30;0.30;;;;;;;-0.66;100.00;98929.47;5013261;28;20076;-77
2021/01/25 07:48:16;;;;;;;0.20;0.20;;;;;;;-0.67;100.00;98933.41;5012824;28;20517;-77
2021/01/25 07:51:19;;;;;;;0.30;0.30;;;;;;;-0.71;100.00;98932.69;5012854;28;20053;-77
2021/01/25 07:54:29;;;;;;;0.30;0.30;;;;;;;-0.70;100.00;98938.94;5012970;28;20048;-77
2021/01/25 07:57:32;;;;;;;0.45;0.45;;;;;;;-0.71;100.00;98942.88;5012631;28;20052;-78
2021/01/25 08:00:38;;;;;;;0.30;0.30;;;;;;;-0.70;100.00;98944.41;5012962;28;20394;-77
2021/01/25 08:03:44;;;;;;;0.40;0.40;;;;;;;-0.71;100.00;98954.56;5012573;28;20061;-77
2021/01/25 08:06:52;;;;;;;0.40;0.40;;;;;;;-0.72;100.00;98957.72;5012421;28;20517;-77
2021/01/25 08:09:56;;;;;;;0.20;0.20;;;;;;;-0.71;100.00;98960.03;5012080;28;20052;-76
2021/01/25 08:13:02;;;;;;;0.20;0.20;;;;;;;-0.70;100.00;98963.53;5011826;28;20052;-78
2021/01/25 08:16:21;;;;;;;0.30;0.30;;;;;;;-0.68;100.00;98975.59;5012541;28;20099;-77
2021/01/25 08:19:32;;;;;;;0.30;0.30;;;;;;;-0.65;100.00;98974.75;5011818;28;20072;-77
2021/01/25 08:22:38;;;;;;;0.30;0.30;;;;;;;-0.61;100.00;98972.72;5010354;28;20410;-77
2021/01/25 08:25:42;;;;;;;0.40;0.40;;;;;;;-0.62;100.00;98979.38;5012175;28;20506;-77
2021/01/25 08:28:46;;;;;;;0.20;0.20;;;;;;;-0.70;100.00;98978.00;5012191;28;20053;-77
2021/01/25 08:31:49;;;;;;;0.30;0.30;;;;;;;-0.81;100.00;98994.59;5012300;28;20414;-77
2021/01/25 08:35:02;;;;;;;0.30;0.30;;;;;;;-0.88;100.00;98991.22;5012316;28;20049;-78
2021/01/25 08:38:33;;;;;;;0.35;0.35;;;;;;;-0.82;100.00;98992.28;5012590;28;20049;-77
2021/01/25 08:41:38;;;;;;;0.30;0.30;;;;;;;-0.80;100.00;98973.50;5012207;28;20434;-78
2021/01/25 08:44:45;;;;;;;0.30;0.30;;;;;;;-0.88;100.00;98983.03;5012391;28;20056;-77
2021/01/25 08:47:48;;;;;;;0.30;0.30;;;;;;;-0.96;100.00;98979.66;5012309;28;20053;-77
2021/01/25 08:50:52;;;;;;;0.40;0.40;;;;;;;-1.06;100.00;98983.34;5012505;28;20053;-79
2021/01/25 08:54:04;;;;;;;0.30;0.30;;;;;;;-1.12;100.00;98995.19;5012280;28;20395;-78
2021/01/25 08:57:31;;;;;;;0.40;0.40;;;;;;;-1.14;100.00;99003.03;5011483;28;20403;-79
2021/01/25 09:00:35;;;;;;;0.30;0.30;;;;;;;-1.18;100.00;98997.63;5012242;28;20057;-78
2021/01/25 09:03:39;;;;;;;0.30;0.30;;;;;;;-1.22;100.00;99001.63;5012064;28;20533;-78
2021/01/25 09:06:50;;;;;;;0.30;0.30;;;;;;;-1.23;100.00;99002.78;5011207;28;20445;-78
2021/01/25 09:09:54;;;;;;;0.50;0.50;;;;;;;-1.22;100.00;99001.63;5012873;28;20057;-78
2021/01/25 09:12:57;;;;;;;0.30;0.30;;;;;;;-1.14;100.00;99009.28;5031530;28;20044;-78
2021/01/25 09:16:01;;;;;;;0.30;0.30;;;;;;;-1.09;100.00;99016.22;5021303;28;20073;-77
2021/01/25 09:19:04;;;;;;;0.20;0.20;;;;;;;-1.11;100.00;99005.72;5011790;28;20105;-78
2021/01/25 09:22:10;;;;;;;0.30;0.30;;;;;;;-1.11;100.00;99013.91;5011668;28;20061;-78
2021/01/25 09:25:15;;;;;;;0.40;0.40;;;;;;;-1.12;100.00;99027.97;5011867;28;20049;-78
2021/01/25 09:28:19;;;;;;;0.30;0.30;;;;;;;-1.13;100.00;99026.44;5012392;28;20069;-79
2021/01/25 09:31:26;;;;;;;0.17;0.17;;;;;;;-1.09;100.00;99040.81;5015259;28;20415;-78
2021/01/25 09:34:30;;;;;;;0.40;0.40;;;;;;;-1.03;100.00;99037.19;5015603;28;20053;-79
2021/01/25 09:37:33;;;;;;;0.35;0.35;;;;;;;-0.97;100.00;99043.69;5016286;28;20057;-78
2021/01/25 09:40:36;;;;;;;0.30;0.30;;;;;;;-0.78;100.00;99050.41;5015610;28;20072;-79
2021/01/25 09:43:40;;;;;;;0.40;0.40;;;;;;;-0.76;100.00;99048.00;5014524;28;20053;-79
2021/01/25 09:46:44;;;;;;;0.40;0.40;;;;;;;-0.67;100.00;99053.66;5015610;28;20069;-78
2021/01/25 09:49:47;;;;;;;0.30;0.30;;;;;;;-0.56;100.00;99040.56;5015723;28;20060;-78
2021/01/25 09:52:50;;;;;;;0.25;0.25;;;;;;;-0.49;100.00;99054.13;5015567;28;20053;-79
2021/01/25 09:55:55;;;;;;;0.40;0.40;;;;;;;-0.46;100.00;99053.28;5015284;28;20769;-77
2021/01/25 09:58:59;;;;;;;0.10;0.10;;;;;;;-0.43;100.00;99057.91;5015293;28;20110;-79
2021/01/25 10:02:03;;;;;;;0.30;0.30;;;;;;;-0.34;100.00;99066.31;5015319;28;20069;-78
2021/01/25 10:05:08;;;;;;;0.28;0.28;;;;;;;-0.32;100.00;99061.19;5015597;28;20501;-78
2021/01/25 10:08:12;;;;;;;0.22;0.22;;;;;;;-0.30;100.00;99064.28;5015786;28;20072;-79
2021/01/25 10:11:15;;;;;;;0.30;0.30;;;;;;;-0.14;100.00;99078.03;5026478;28;20056;-79
2021/01/25 10:14:19;;;;;;;0.28;0.28;;;;;;;-0.12;100.00;99078.38;5034301;28;20044;-79
2021/01/25 10:17:22;;;;;;;0.22;0.22;;;;;;;-0.08;100.00;99084.53;5033838;28;20052;-78
2021/01/25 10:20:26;;;;;;;0.20;0.20;;;;;;;-0.02;100.00;99085.56;5034350;28;20076;-78
2021/01/25 10:23:31;;;;;;;0.30;0.30;;;;;;;0.04;100.00;99096.81;5033819;28;20513;-79
2021/01/25 10:26:34;;;;;;;0.20;0.20;;;;;;;0.05;100.00;99103.81;5033931;28;20049;-78
2021/01/25 10:29:37;;;;;;;0.20;0.20;;;;;;;0.07;100.00;99106.91;5034863;28;20402;-78
2021/01/25 10:32:41;;;;;;;0.30;0.30;;;;;;;0.06;100.00;99104.59;5033181;28;20513;-78
2021/01/25 10:35:44;;;;;;;0.40;0.40;;;;;;;0.12;100.00;99103.66;5033498;28;20053;-79
2021/01/25 10:38:48;;;;;;;0.40;0.40;;;;;;;0.22;100.00;99107.38;5033428;28;20406;-81
2021/01/25 10:41:52;;;;;;;0.22;0.22;;;;;;;0.29;100.00;99107.22;5033811;28;20064;-78
2021/01/25 10:44:55;;;;;;;0.20;0.20;;;;;;;0.38;100.00;99115.63;5034464;28;20056;-78
2021/01/25 10:47:58;;;;;;;0.25;0.25;;;;;;;0.41;100.00;99120.25;5033790;28;20052;-79
2021/01/25 10:51:02;;;;;;;0.10;0.10;;;;;;;0.36;100.00;99124.28;5034177;28;20501;-79
2021/01/25 10:54:05;;;;;;;0.28;0.28;;;;;;;0.37;100.00;99125.03;5034146;28;20068;-79
2021/01/25 10:57:09;;;;;;;0.40;0.40;;;;;;;0.59;100.00;99132.34;5033842;28;20053;-79
2021/01/25 11:00:18;;;;;;;0.35;0.35;;;;;;;0.78;100.00;99139.72;5033289;28;20138;-79
2021/01/25 11:03:21;;;;;;;0.10;0.10;;;;;;;0.89;100.00;99134.00;5033126;28;20053;-79
2021/01/25 11:06:24;;;;;;;0.20;0.20;;;;;;;1.08;100.00;99135.13;5033726;28;20064;-79
2021/01/25 11:09:28;;;;;;;0.30;0.30;;;;;;;1.06;100.00;99132.03;5034030;28;20048;-79
2021/01/25 11:12:31;;;;;;;0.35;0.35;;;;;;;1.06;100.00;99132.03;5013132;28;20394;-80
2021/01/25 11:15:36;;;;;;;0.20;0.20;;;;;;;1.06;100.00;99132.78;5014027;28;20054;-79
2021/01/25 11:18:40;;;;;;;0.20;0.20;;;;;;;1.02;100.00;99126.63;5012882;28;20438;-79
2021/01/25 11:21:43;;;;;;;0.20;0.20;;;;;;;1.03;100.00;99141.91;5013148;28;20525;-80
2021/01/25 11:24:50;;;;;;;0.20;0.20;;;;;;;1.08;100.00;99146.88;5013652;28;20057;-80
2021/01/25 11:27:53;;;;;;;0.10;0.10;;;;;;;1.19;100.00;99150.09;5013748;28;20064;-79
2021/01/25 11:30:57;;;;;;;0.25;0.25;;;;;;;1.29;100.00;99145.56;5013658;28;20403;-79
2021/01/25 11:34:00;;;;;;;0.20;0.20;;;;;;;1.33;100.00;99144.28;5013585;28;20053;-79
2021/01/25 11:37:05;;;;;;;0.20;0.20;;;;;;;1.32;100.00;99147.44;5013360;28;20061;-79
2021/01/25 11:40:09;;;;;;;0.10;0.10;;;;;;;1.28;100.00;99144.78;5013827;28;20056;-77
2021/01/25 11:43:12;;;;;;;0.10;0.10;;;;;;;1.32;100.00;99145.47;5012205;28;20048;-79
2021/01/25 11:46:19;;;;;;;0.30;0.30;;;;;;;1.31;100.00;99149.41;5013269;28;20060;-80
2021/01/25 11:49:22;;;;;;;0.20;0.20;;;;;;;1.31;100.00;99149.41;5013413;28;20053;-78
2021/01/25 11:52:26;;;;;;;0.20;0.20;;;;;;;1.45;100.00;99146.28;5012142;28;20053;-79
2021/01/25 11:55:29;;;;;;;0.20;0.20;;;;;;;1.70;100.00;99148.41;5012283;28;20072;-79
2021/01/25 11:58:32;;;;;;;0.20;0.20;;;;;;;1.83;100.00;99151.19;5012225;28;20060;-79
2021/01/25 12:01:36;;;;;;;0.10;0.10;;;;;;;1.87;100.00;99151.84;5011097;28;20086;-79
2021/01/25 12:04:40;;;;;;;0.20;0.20;;;;;;;1.93;100.00;99155.59;5012147;28;20148;-78
2021/01/25 12:07:43;;;;;;;0.28;0.28;;;;;;;1.96;100.00;99161.00;5012622;28;20065;-78
2021/01/25 12:10:47;;;;;;;0.10;0.10;;;;;;;1.95;100.00;99164.19;5020171;28;20053;-81
2021/01/25 12:13:50;;;;;;;0.20;0.20;;;;;;;2.00;100.00;99155.41;5030770;28;20056;-79
2021/01/25 12:16:54;;;;;;;0.30;0.30;;;;;;;2.06;100.00;99159.16;5030681;28;20053;-79
2021/01/25 12:19:58;;;;;;;0.10;0.10;;;;;;;2.15;100.00;99156.56;5030492;28;20397;-79
2021/01/25 12:23:01;;;;;;;0.15;0.15;;;;;;;2.15;100.00;99176.56;5031509;28;20166;-79
2021/01/25 12:26:05;;;;;;;0.10;0.10;;;;;;;2.18;100.00;99172.94;5031537;28;20394;-78
2021/01/25 12:29:08;;;;;;;0.10;0.10;;;;;;;2.31;100.00;99175.72;5031665;28;20057;-79
2021/01/25 12:32:11;;;;;;;0.20;0.20;;;;;;;2.50;100.00;99176.75;5031764;28;20167;-79
2021/01/25 12:35:15;;;;;;;0.20;0.20;;;;;;;2.78;100.00;99173.13;5031644;28;20068;-79
2021/01/25 12:38:19;;;;;;;0.10;0.10;;;;;;;2.83;100.00;99184.38;5031485;28;20505;-78
2021/01/25 12:41:23;;;;;;;0.20;0.20;;;;;;;2.79;100.00;99185.69;5031158;28;20410;-79
2021/01/25 12:44:26;;;;;;;0.17;0.17;;;;;;;2.66;100.00;99193.16;5032366;28;20056;-77
2021/01/25 12:47:30;;;;;;;0.10;0.10;;;;;;;2.68;100.00;99194.25;5031776;28;20052;-78
2021/01/25 12:50:33;;;;;;;0.10;0.10;;;;;;;2.70;100.00;99191.84;5031328;28;20052;-79
2021/01/25 12:53:36;;;;;;;0.10;0.10;;;;;;;2.73;100.00;99195.69;5031524;28;20058;-78
2021/01/25 12:56:40;;;;;;;0.10;0.10;;;;;;;2.73;100.00;99195.69;5031184;28;20409;-79
2021/01/25 12:59:43;;;;;;;0.17;0.17;;;;;;;2.75;100.00;99196.78;5031143;28;20057;-78
2021/01/25 13:02:47;;;;;;;0.15;0.15;;;;;;;2.76;100.00;99195.56;5031466;28;20060;-79
2021/01/25 13:05:50;;;;;;;0.20;0.20;;;;;;;2.72;100.00;99199.63;5035233;28;20057;-78
2021/01/25 13:08:53;;;;;;;0.20;0.20;;;;;;;2.74;100.00;99199.97;5035401;28;20056;-79
2021/01/25 13:11:57;;;;;;;0.28;0.28;;;;;;;2.90;100.00;99206.13;5034800;28;20058;-80
2021/01/25 13:15:00;;;;;;;0.20;0.20;;;;;;;2.92;100.00;99198.22;5036054;28;20049;-79
2021/01/25 13:18:04;;;;;;;0.10;0.10;;;;;;;3.07;100.00;99204.81;5034790;28;20052;-79
2021/01/25 13:21:07;;;;;;;0.20;0.20;;;;;;;3.34;100.00;99187.06;5031908;28;20072;-79
2021/01/25 13:24:11;;;;;;;0.10;0.10;;;;;;;3.44;100.00;99202.47;5032117;28;20056;-78
2021/01/25 13:27:15;;;;;;;0.10;0.10;;;;;;;3.31;100.00;99201.72;5033231;28;20052;-79
2021/01/25 13:30:21;;;;;;;0.10;0.10;;;;;;;3.27;100.00;99203.81;5033312;28;20056;-79
2021/01/25 13:33:24;;;;;;;0.20;0.20;;;;;;;3.19;100.00;99213.50;5032941;28;20051;-79
2021/01/25 13:36:28;;;;;;;0.10;0.10;;;;;;;3.42;100.00;99207.66;5035139;28;20056;-79
2021/01/25 13:39:31;;;;;;;0.10;0.10;;;;;;;3.60;100.00;99219.63;5035312;28;20060;-78
2021/01/25 13:42:35;;;;;;;0.10;0.10;;;;;;;3.73;100.00;99216.81;5034988;28;20052;-78
2021/01/25 13:45:40;;;;;;;0.10;0.10;;;;;;;3.60;100.00;99208.59;5035345;28;20048;-79
2021/01/25 13:48:44;;;;;;;0.10;0.10;;;;;;;3.48;100.00;99214.13;5035144;28;20080;-79
2021/01/25 13:51:47;;;;;;;0.15;0.15;;;;;;;3.46;100.00;99209.09;5039122;28;20060;-80
2021/01/25 13:54:50;;;;;;;0.10;0.10;;;;;;;3.51;100.00;99224.28;5038211;28;20501;-79
2021/01/25 13:57:54;;;;;;;0.20;0.20;;;;;;;3.43;100.00;99218.22;5037593;28;20060;-80
2021/01/25 14:00:58;;;;;;;0.10;0.10;;;;;;;3.38;100.00;99229.03;5035089;28;20120;-83
2021/01/25 14:04:01;;;;;;;0.10;0.10;;;;;;;3.25;100.00;99228.25;5034529;28;20057;-82
2021/01/25 14:07:05;;;;;;;0.10;0.10;;;;;;;3.18;100.00;99256.78;5034380;28;20505;-83
2021/01/25 14:10:09;;;;;;;0.10;0.10;;;;;;;3.21;100.00;99250.38;5035009;28;20057;-82
2021/01/25 14:13:14;;;;;;;0.10;0.10;;;;;;;3.18;100.00;99267.00;5033111;28;20529;-80
2021/01/25 14:16:19;;;;;;;0.10;0.10;;;;;;;3.05;100.00;99289.75;5013871;28;20113;-81
2021/01/25 14:19:22;;;;;;;0.10;0.10;;;;;;;2.75;100.00;99290.25;5015378;28;20411;-82
2021/01/25 14:22:26;;;;;;;0.10;0.10;;;;;;;2.44;100.00;99294.66;5013865;28;20057;-81